Aviation Digital Data Service (ADDS)

Output produced by METARs form (0621 UTC 19 March 2019)
found at http://www.aviationweather.gov/metar/data/
 
METAR text: OAKB 190550Z VRB03KT 7000 -DZ SCT004 BKN025 04/03 Q1017 NOSIG RMK A3003 WHT WHT
Conditions at: OAKB (KABUL INTL (MIL), AF) observed 0550 UTC 19 March 2019
Temperature: 4.0°C (39°F)
Dewpoint: 3.0°C (37°F) [RH = 93%]
Pressure (altimeter): 30.03 inches Hg (1017.0 mb)
Winds: variable direction winds at 3 MPH (3 knots; 1.5 m/s)
Visibility: 4 miles ( 7 km)
Ceiling: 2500 feet AGL
Clouds: scattered clouds at 400 feet AGL
broken clouds at 2500 feet AGL
Weather: -DZ  (light drizzle)

METAR text: OAKB 190450Z 34008KT 7000 FEW008 BKN035 04/02 Q1016 RESHRA RMK A3003 WHT WHT
Conditions at: OAKB (KABUL INTL (MIL), AF) observed 0450 UTC 19 March 2019
Temperature: 4.0°C (39°F)
Dewpoint: 2.0°C (36°F) [RH = 87%]
Pressure (altimeter): 30.00 inches Hg (1016.0 mb)
Winds: from the NNW (340 degrees) at 9 MPH (8 knots; 4.1 m/s)
Visibility: 4 miles ( 7 km)
Ceiling: 3500 feet AGL
Clouds: few clouds at 800 feet AGL
broken clouds at 3500 feet AGL
Weather: no significant weather observed at this time

METAR text: OAKB 190350Z 31009KT 7000 -SHRA BKN008 OVC020 03/02 Q1016 NOSIG RMK A3001 GRN GRN
Conditions at: OAKB (KABUL INTL (MIL), AF) observed 0350 UTC 19 March 2019
Temperature: 3.0°C (37°F)
Dewpoint: 2.0°C (36°F) [RH = 93%]
Pressure (altimeter): 30.00 inches Hg (1016.0 mb)
Winds: from the NW (310 degrees) at 10 MPH (9 knots; 4.6 m/s)
Visibility: 4 miles ( 7 km)
Ceiling: 800 feet AGL
Clouds: broken clouds at 800 feet AGL
overcast cloud deck at 2000 feet AGL
Weather: -SHRA  (light rain showers)

METAR text: OAKB 190325Z 07009KT 7000 -RA BR BKN008 OVC020 02/02 Q1015 NOSIG RMK A2999 GRN
Conditions at: OAKB (KABUL INTL (MIL), AF) observed 0325 UTC 19 March 2019
Temperature: 2.0°C (36°F)
Dewpoint: 2.0°C (36°F) [RH = 100%]
Pressure (altimeter): 29.97 inches Hg (1015.0 mb)
Winds: from the ENE (70 degrees) at 10 MPH (9 knots; 4.6 m/s)
Visibility: 4 miles ( 7 km)
Ceiling: 800 feet AGL
Clouds: broken clouds at 800 feet AGL
overcast cloud deck at 2000 feet AGL
Weather: -RA BR  (light rain, mist)

METAR text: OAKB 190250Z 27005KT 7000 -RA SCT008 OVC020 02/02 Q1016 NOSIG RMK A3002 WHT
Conditions at: OAKB (KABUL INTL (MIL), AF) observed 0250 UTC 19 March 2019
Temperature: 2.0°C (36°F)
Dewpoint: 2.0°C (36°F) [RH = 100%]
Pressure (altimeter): 30.00 inches Hg (1016.0 mb)
Winds: from the W (270 degrees) at 6 MPH (5 knots; 2.6 m/s)
Visibility: 4 miles ( 7 km)
Ceiling: 2000 feet AGL
Clouds: scattered clouds at 800 feet AGL
overcast cloud deck at 2000 feet AGL
Weather: -RA  (light rain)

METAR text: OAKB 190200Z 33007KT 2500 RA BR BKN011 OVC020 02/01 Q1016 NOSIG RMK A3001 WHT WHT
Conditions at: OAKB (KABUL INTL (MIL), AF) observed 0200 UTC 19 March 2019
Temperature: 2.0°C (36°F)
Dewpoint: 1.0°C (34°F) [RH = 93%]
Pressure (altimeter): 30.00 inches Hg (1016.0 mb)
Winds: from the NNW (330 degrees) at 8 MPH (7 knots; 3.6 m/s)
Visibility: 1.55 miles (2.49 km)
Ceiling: 1100 feet AGL
Clouds: broken clouds at 1100 feet AGL
overcast cloud deck at 2000 feet AGL
Weather: RA BR  (moderate rain, mist)

METAR text: OAKB 190150Z 31012KT 5000 -RA BKN011 OVC021 03/02 Q1014 NOSIG RMK A3000 WHT WHT
Conditions at: OAKB (KABUL INTL (MIL), AF) observed 0150 UTC 19 March 2019
Temperature: 3.0°C (37°F)
Dewpoint: 2.0°C (36°F) [RH = 93%]
Pressure (altimeter): 29.94 inches Hg (1014.0 mb)
Winds: from the NW (310 degrees) at 14 MPH (12 knots; 6.2 m/s)
Visibility: 3 miles ( 5 km)
Ceiling: 1100 feet AGL
Clouds: broken clouds at 1100 feet AGL
overcast cloud deck at 2100 feet AGL
Weather: -RA  (light rain)

METAR text: OAKB 190050Z 05006KT 9999 -SHRA FEW007 SCT015 BKN030 OVC045 04/02 Q1014 NOSIG RMK A2996 BLU BLU
Conditions at: OAKB (KABUL INTL (MIL), AF) observed 0050 UTC 19 March 2019
Temperature: 4.0°C (39°F)
Dewpoint: 2.0°C (36°F) [RH = 87%]
Pressure (altimeter): 29.94 inches Hg (1014.0 mb)
Winds: from the NE (50 degrees) at 7 MPH (6 knots; 3.1 m/s)
Visibility: 6 or more miles (10+ km)
Ceiling: 3000 feet AGL
Clouds: few clouds at 700 feet AGL
scattered clouds at 1500 feet AGL
broken clouds at 3000 feet AGL
overcast cloud deck at 4500 feet AGL
Weather: -SHRA  (light rain showers)

METAR text: OAKB 182350Z 01005KT 9999 SCT010 BKN020 OVC040 04/02 Q1014 NOSIG RERA RMK A2996 BLU BLU
Conditions at: OAKB (KABUL INTL (MIL), AF) observed 2350 UTC 18 March 2019
Temperature: 4.0°C (39°F)
Dewpoint: 2.0°C (36°F) [RH = 87%]
Pressure (altimeter): 29.94 inches Hg (1014.0 mb)
Winds: from the N (10 degrees) at 6 MPH (5 knots; 2.6 m/s)
Visibility: 6 or more miles (10+ km)
Ceiling: 2000 feet AGL
Clouds: scattered clouds at 1000 feet AGL
broken clouds at 2000 feet AGL
overcast cloud deck at 4000 feet AGL
Weather: no significant weather observed at this time

METAR text: OAKB 182250Z 04006KT 9999 -RA FEW005 SCT018 BKN035 OVC040 05/02 Q1015 NOSIG RMK A2997 BLU BLU
Conditions at: OAKB (KABUL INTL (MIL), AF) observed 2250 UTC 18 March 2019
Temperature: 5.0°C (41°F)
Dewpoint: 2.0°C (36°F) [RH = 81%]
Pressure (altimeter): 29.97 inches Hg (1015.0 mb)
Winds: from the NE (40 degrees) at 7 MPH (6 knots; 3.1 m/s)
Visibility: 6 or more miles (10+ km)
Ceiling: 3500 feet AGL
Clouds: few clouds at 500 feet AGL
scattered clouds at 1800 feet AGL
broken clouds at 3500 feet AGL
overcast cloud deck at 4000 feet AGL
Weather: -RA  (light rain)

METAR text: OAKB 182150Z 05005KT 9000 -RA FEW012 SCT024 OVC032 05/03 Q1016 NOSIG RMK A3000 BLU BLU
Conditions at: OAKB (KABUL INTL (MIL), AF) observed 2150 UTC 18 March 2019
Temperature: 5.0°C (41°F)
Dewpoint: 3.0°C (37°F) [RH = 87%]
Pressure (altimeter): 30.00 inches Hg (1016.0 mb)
Winds: from the NE (50 degrees) at 6 MPH (5 knots; 2.6 m/s)
Visibility: 6 miles ( 9 km)
Ceiling: 3200 feet AGL
Clouds: few clouds at 1200 feet AGL
scattered clouds at 2400 feet AGL
overcast cloud deck at 3200 feet AGL
Weather: -RA  (light rain)

METAR text: OAKB 182050Z 09008KT 9000 -RA FEW012 SCT025 OVC030 05/03 Q1017 NOSIG RMK A3004 BLU BLU
Conditions at: OAKB (KABUL INTL (MIL), AF) observed 2050 UTC 18 March 2019
Temperature: 5.0°C (41°F)
Dewpoint: 3.0°C (37°F) [RH = 87%]
Pressure (altimeter): 30.03 inches Hg (1017.0 mb)
Winds: from the E (90 degrees) at 9 MPH (8 knots; 4.1 m/s)
Visibility: 6 miles ( 9 km)
Ceiling: 3000 feet AGL
Clouds: few clouds at 1200 feet AGL
scattered clouds at 2500 feet AGL
overcast cloud deck at 3000 feet AGL
Weather: -RA  (light rain)

METAR text: OAKB 181950Z 10015KT 9999 -RA SCT025 BKN040 OVC045 06/03 Q1017 NOSIG RMK A3004 BLU BLU
Conditions at: OAKB (KABUL INTL (MIL), AF) observed 1950 UTC 18 March 2019
Temperature: 6.0°C (43°F)
Dewpoint: 3.0°C (37°F) [RH = 81%]
Pressure (altimeter): 30.03 inches Hg (1017.0 mb)
Winds: from the E (100 degrees) at 17 MPH (15 knots; 7.7 m/s)
Visibility: 6 or more miles (10+ km)
Ceiling: 4000 feet AGL
Clouds: scattered clouds at 2500 feet AGL
broken clouds at 4000 feet AGL
overcast cloud deck at 4500 feet AGL
Weather: -RA  (light rain)

METAR text: OAKB 181850Z 07010KT 9999 -RA SCT024 BKN032 OVC055 05/03 Q1017 NOSIG RMK A3005 BLU BLU
Conditions at: OAKB (KABUL INTL (MIL), AF) observed 1850 UTC 18 March 2019
Temperature: 5.0°C (41°F)
Dewpoint: 3.0°C (37°F) [RH = 87%]
Pressure (altimeter): 30.03 inches Hg (1017.0 mb)
Winds: from the ENE (70 degrees) at 12 MPH (10 knots; 5.1 m/s)
Visibility: 6 or more miles (10+ km)
Ceiling: 3200 feet AGL
Clouds: scattered clouds at 2400 feet AGL
broken clouds at 3200 feet AGL
overcast cloud deck at 5500 feet AGL
Weather: -RA  (light rain)

METAR text: OAKB 181750Z 08007KT 9999 -RA SCT024 BKN033 OVC040 05/03 Q1018 NOSIG RMK A3008 BLU BLU
Conditions at: OAKB (KABUL INTL (MIL), AF) observed 1750 UTC 18 March 2019
Temperature: 5.0°C (41°F)
Dewpoint: 3.0°C (37°F) [RH = 87%]
Pressure (altimeter): 30.06 inches Hg (1018.0 mb)
Winds: from the E (80 degrees) at 8 MPH (7 knots; 3.6 m/s)
Visibility: 6 or more miles (10+ km)
Ceiling: 3300 feet AGL
Clouds: scattered clouds at 2400 feet AGL
broken clouds at 3300 feet AGL
overcast cloud deck at 4000 feet AGL
Weather: -RA  (light rain)

METAR text: OAKB 181650Z 33005KT 9999 -RA SCT022 BKN027 OVC035 05/03 Q1019 NOSIG RMK A3010 BLU BLU
Conditions at: OAKB (KABUL INTL (MIL), AF) observed 1650 UTC 18 March 2019
Temperature: 5.0°C (41°F)
Dewpoint: 3.0°C (37°F) [RH = 87%]
Pressure (altimeter): 30.09 inches Hg (1019.0 mb)
Winds: from the NNW (330 degrees) at 6 MPH (5 knots; 2.6 m/s)
Visibility: 6 or more miles (10+ km)
Ceiling: 2700 feet AGL
Clouds: scattered clouds at 2200 feet AGL
broken clouds at 2700 feet AGL
overcast cloud deck at 3500 feet AGL
Weather: -RA  (light rain)

METAR text: OAKB 181550Z 35011KT 9000 -RA SCT017 BKN021 OVC027 05/03 Q1019 NOSIG RMK A3011 WHT WHT
Conditions at: OAKB (KABUL INTL (MIL), AF) observed 1550 UTC 18 March 2019
Temperature: 5.0°C (41°F)
Dewpoint: 3.0°C (37°F) [RH = 87%]
Pressure (altimeter): 30.09 inches Hg (1019.0 mb)
Winds: from the N (350 degrees) at 13 MPH (11 knots; 5.7 m/s)
Visibility: 6 miles ( 9 km)
Ceiling: 2100 feet AGL
Clouds: scattered clouds at 1700 feet AGL
broken clouds at 2100 feet AGL
overcast cloud deck at 2700 feet AGL
Weather: -RA  (light rain)

METAR text: OAKB 181520Z 35008KT 9000 -RA BKN020 OVC025 06/04 Q1019 RMK A3010 WHT
Conditions at: OAKB (KABUL INTL (MIL), AF) observed 1520 UTC 18 March 2019
Temperature: 6.0°C (43°F)
Dewpoint: 4.0°C (39°F) [RH = 87%]
Pressure (altimeter): 30.09 inches Hg (1019.0 mb)
Winds: from the N (350 degrees) at 9 MPH (8 knots; 4.1 m/s)
Visibility: 6 miles ( 9 km)
Ceiling: 2000 feet AGL
Clouds: broken clouds at 2000 feet AGL
overcast cloud deck at 2500 feet AGL
Weather: -RA  (light rain)

METAR text: OAKB 181450Z VRB03KT 6000 RA BKN020 OVC025 06/04 Q1019 NOSIG RMK A3011 WHT WHT
Conditions at: OAKB (KABUL INTL (MIL), AF) observed 1450 UTC 18 March 2019
Temperature: 6.0°C (43°F)
Dewpoint: 4.0°C (39°F) [RH = 87%]
Pressure (altimeter): 30.09 inches Hg (1019.0 mb)
Winds: variable direction winds at 3 MPH (3 knots; 1.5 m/s)
Visibility: 4 miles ( 6 km)
Ceiling: 2000 feet AGL
Clouds: broken clouds at 2000 feet AGL
overcast cloud deck at 2500 feet AGL
Weather: RA  (moderate rain)

METAR text: OAKB 181430Z 33007KT 6000 RA BKN022 OVC027 06/04 Q1019 RMK A3011 WHT
Conditions at: OAKB (KABUL INTL (MIL), AF) observed 1430 UTC 18 March 2019
Temperature: 6.0°C (43°F)
Dewpoint: 4.0°C (39°F) [RH = 87%]
Pressure (altimeter): 30.09 inches Hg (1019.0 mb)
Winds: from the NNW (330 degrees) at 8 MPH (7 knots; 3.6 m/s)
Visibility: 4 miles ( 6 km)
Ceiling: 2200 feet AGL
Clouds: broken clouds at 2200 feet AGL
overcast cloud deck at 2700 feet AGL
Weather: RA  (moderate rain)

METAR text: OAKB 181350Z 36009KT 8000 -RA BKN024 OVC030 06/04 Q1019 NOSIG RMK A3010 BLU BLU
Conditions at: OAKB (KABUL INTL (MIL), AF) observed 1350 UTC 18 March 2019
Temperature: 6.0°C (43°F)
Dewpoint: 4.0°C (39°F) [RH = 87%]
Pressure (altimeter): 30.09 inches Hg (1019.0 mb)
Winds: from the N (360 degrees) at 10 MPH (9 knots; 4.6 m/s)
Visibility: 5 miles ( 8 km)
Ceiling: 2400 feet AGL
Clouds: broken clouds at 2400 feet AGL
overcast cloud deck at 3000 feet AGL
Weather: -RA  (light rain)

METAR text: OAKB 181250Z 35011KT 8000 -RA BKN032 OVC040 06/04 Q1019 NOSIG RMK A3011 BLU BLU
Conditions at: OAKB (KABUL INTL (MIL), AF) observed 1250 UTC 18 March 2019
Temperature: 6.0°C (43°F)
Dewpoint: 4.0°C (39°F) [RH = 87%]
Pressure (altimeter): 30.09 inches Hg (1019.0 mb)
Winds: from the N (350 degrees) at 13 MPH (11 knots; 5.7 m/s)
Visibility: 5 miles ( 8 km)
Ceiling: 3200 feet AGL
Clouds: broken clouds at 3200 feet AGL
overcast cloud deck at 4000 feet AGL
Weather: -RA  (light rain)

METAR text: OAKB 181150Z 35008KT 9000 -RA FEW028 BKN036 OVC045 07/04 Q1019 NOSIG RMK A3011 BLU BLU
Conditions at: OAKB (KABUL INTL (MIL), AF) observed 1150 UTC 18 March 2019
Temperature: 7.0°C (45°F)
Dewpoint: 4.0°C (39°F) [RH = 81%]
Pressure (altimeter): 30.09 inches Hg (1019.0 mb)
Winds: from the N (350 degrees) at 9 MPH (8 knots; 4.1 m/s)
Visibility: 6 miles ( 9 km)
Ceiling: 3600 feet AGL
Clouds: few clouds at 2800 feet AGL
broken clouds at 3600 feet AGL
overcast cloud deck at 4500 feet AGL
Weather: -RA  (light rain)

METAR text: OAKB 181050Z 31007KT 8000 -SHRA BKN032 OVC040 08/04 Q1020 NOSIG RMK A3013 BLU BLU
Conditions at: OAKB (KABUL INTL (MIL), AF) observed 1050 UTC 18 March 2019
Temperature: 8.0°C (46°F)
Dewpoint: 4.0°C (39°F) [RH = 76%]
Pressure (altimeter): 30.12 inches Hg (1020.0 mb)
Winds: from the NW (310 degrees) at 8 MPH (7 knots; 3.6 m/s)
Visibility: 5 miles ( 8 km)
Ceiling: 3200 feet AGL
Clouds: broken clouds at 3200 feet AGL
overcast cloud deck at 4000 feet AGL
Weather: -SHRA  (light rain showers)

METAR text: OAKB 180950Z 26010KT 8000 -SHRA BKN042 OVC050 08/02 Q1020 NOSIG RMK A3015 BLU BLU
Conditions at: OAKB (KABUL INTL (MIL), AF) observed 0950 UTC 18 March 2019
Temperature: 8.0°C (46°F)
Dewpoint: 2.0°C (36°F) [RH = 66%]
Pressure (altimeter): 30.12 inches Hg (1020.0 mb)
Winds: from the W (260 degrees) at 12 MPH (10 knots; 5.1 m/s)
Visibility: 5 miles ( 8 km)
Ceiling: 4200 feet AGL
Clouds: broken clouds at 4200 feet AGL
overcast cloud deck at 5000 feet AGL
Weather: -SHRA  (light rain showers)

METAR text: OAKB 180850Z 29006KT 9000 BKN050 OVC065 11/M01 Q1021 NOSIG RMK A3015 BLU BLU
Conditions at: OAKB (KABUL INTL (MIL), AF) observed 0850 UTC 18 March 2019
Temperature: 11.0°C (52°F)
Dewpoint: -1.0°C (30°F) [RH = 43%]
Pressure (altimeter): 30.15 inches Hg (1021.0 mb)
Winds: from the WNW (290 degrees) at 7 MPH (6 knots; 3.1 m/s)
Visibility: 6 miles ( 9 km)
Ceiling: 5000 feet AGL
Clouds: broken clouds at 5000 feet AGL
overcast cloud deck at 6500 feet AGL
Weather: no significant weather observed at this time

METAR text: OAKB 180750Z 34008KT 9000 BKN050 OVC065 11/00 Q1021 NOSIG RMK A3016 BLU BLU
Conditions at: OAKB (KABUL INTL (MIL), AF) observed 0750 UTC 18 March 2019
Temperature: 11.0°C (52°F)
Dewpoint: 0.0°C (32°F) [RH = 47%]
Pressure (altimeter): 30.15 inches Hg (1021.0 mb)
Winds: from the NNW (340 degrees) at 9 MPH (8 knots; 4.1 m/s)
Visibility: 6 miles ( 9 km)
Ceiling: 5000 feet AGL
Clouds: broken clouds at 5000 feet AGL
overcast cloud deck at 6500 feet AGL
Weather: no significant weather observed at this time

METAR text: OAKB 180650Z 35009KT 8000 BKN050 OVC065 11/M00 Q1021 NOSIG RMK A3018 BLU BLU
Conditions at: OAKB (KABUL INTL (MIL), AF) observed 0650 UTC 18 March 2019
Temperature: 11.0°C (52°F)
Dewpoint: 0.0°C (32°F) [RH = 47%]
Pressure (altimeter): 30.15 inches Hg (1021.0 mb)
Winds: from the N (350 degrees) at 10 MPH (9 knots; 4.6 m/s)
Visibility: 5 miles ( 8 km)
Ceiling: 5000 feet AGL
Clouds: broken clouds at 5000 feet AGL
overcast cloud deck at 6500 feet AGL
Weather: no significant weather observed at this time

METAR text: OAKB 180550Z 30005KT 6000 BKN065 OVC085 11/M01 Q1022 NOSIG RMK A3019 WHT WHT
Conditions at: OAKB (KABUL INTL (MIL), AF) observed 0550 UTC 18 March 2019
Temperature: 11.0°C (52°F)
Dewpoint: -1.0°C (30°F) [RH = 43%]
Pressure (altimeter): 30.18 inches Hg (1022.0 mb)
Winds: from the WNW (300 degrees) at 6 MPH (5 knots; 2.6 m/s)
Visibility: 4 miles ( 6 km)
Ceiling: 6500 feet AGL
Clouds: broken clouds at 6500 feet AGL
overcast cloud deck at 8500 feet AGL
Weather: no significant weather observed at this time

METAR text: OAKB 180527Z 31004KT 6000 BKN065 BKN055 OVC120 11/M01 Q1022 RMK A3018 WHT
Conditions at: OAKB (KABUL INTL (MIL), AF) observed 0527 UTC 18 March 2019
Temperature: 11.0°C (52°F)
Dewpoint: -1.0°C (30°F) [RH = 43%]
Pressure (altimeter): 30.18 inches Hg (1022.0 mb)
Winds: from the NW (310 degrees) at 5 MPH (4 knots; 2.1 m/s)
Visibility: 4 miles ( 6 km)
Ceiling: 6500 feet AGL
Clouds: broken clouds at 6500 feet AGL
broken clouds at 5500 feet AGL
overcast cloud deck at 12000 feet AGL
Weather: no significant weather observed at this time

METAR text: OAKB 180450Z VRB03KT 5000 FU SCT065 BKN090 OVC130 10/M01 Q1022 NOSIG RMK A3019 WHT WHT
Conditions at: OAKB (KABUL INTL (MIL), AF) observed 0450 UTC 18 March 2019
Temperature: 10.0°C (50°F)
Dewpoint: -1.0°C (30°F) [RH = 46%]
Pressure (altimeter): 30.18 inches Hg (1022.0 mb)
Winds: variable direction winds at 3 MPH (3 knots; 1.5 m/s)
Visibility: 3 miles ( 5 km)
Ceiling: 9000 feet AGL
Clouds: scattered clouds at 6500 feet AGL
broken clouds at 9000 feet AGL
overcast cloud deck at 13000 feet AGL
Weather: FU  (smoke)

METAR text: OAKB 180425Z VRB03KT 5000 FU BKN065 BKN095 OVC200 10/M01 Q1022 RMK A3020 WHT
Conditions at: OAKB (KABUL INTL (MIL), AF) observed 0425 UTC 18 March 2019
Temperature: 10.0°C (50°F)
Dewpoint: -1.0°C (30°F) [RH = 46%]
Pressure (altimeter): 30.18 inches Hg (1022.0 mb)
Winds: variable direction winds at 3 MPH (3 knots; 1.5 m/s)
Visibility: 3 miles ( 5 km)
Ceiling: 6500 feet AGL
Clouds: broken clouds at 6500 feet AGL
broken clouds at 9500 feet AGL
overcast cloud deck at 20000 feet AGL
Weather: FU  (smoke)

METAR text: OAKB 180350Z 32003KT 7000 BKN075 BKN120 BKN200 10/M01 Q1022 NOSIG RMK A3019 WHT WHT
Conditions at: OAKB (KABUL INTL (MIL), AF) observed 0350 UTC 18 March 2019
Temperature: 10.0°C (50°F)
Dewpoint: -1.0°C (30°F) [RH = 46%]
Pressure (altimeter): 30.18 inches Hg (1022.0 mb)
Winds: from the NW (320 degrees) at 3 MPH (3 knots; 1.5 m/s)
Visibility: 4 miles ( 7 km)
Ceiling: 7500 feet AGL
Clouds: broken clouds at 7500 feet AGL
broken clouds at 12000 feet AGL
broken clouds at 20000 feet AGL
Weather: no significant weather observed at this time

METAR text: OAKB 180250Z 29004KT 9000 SCT075 BKN120 BKN200 08/M00 Q1021 NOSIG RMK A3017 BLU BLU
Conditions at: OAKB (KABUL INTL (MIL), AF) observed 0250 UTC 18 March 2019
Temperature: 8.0°C (46°F)
Dewpoint: 0.0°C (32°F) [RH = 57%]
Pressure (altimeter): 30.15 inches Hg (1021.0 mb)
Winds: from the WNW (290 degrees) at 5 MPH (4 knots; 2.1 m/s)
Visibility: 6 miles ( 9 km)
Ceiling: 12000 feet AGL
Clouds: scattered clouds at 7500 feet AGL
broken clouds at 12000 feet AGL
broken clouds at 20000 feet AGL
Weather: no significant weather observed at this time

METAR text: OAKB 180150Z 33006KT 9999 BKN075 BKN200 06/M01 Q1021 NOSIG RMK A3016 BLU BLU
Conditions at: OAKB (KABUL INTL (MIL), AF) observed 0150 UTC 18 March 2019
Temperature: 6.0°C (43°F)
Dewpoint: -1.0°C (30°F) [RH = 61%]
Pressure (altimeter): 30.15 inches Hg (1021.0 mb)
Winds: from the NNW (330 degrees) at 7 MPH (6 knots; 3.1 m/s)
Visibility: 6 or more miles (10+ km)
Ceiling: 7500 feet AGL
Clouds: broken clouds at 7500 feet AGL
broken clouds at 20000 feet AGL
Weather: no significant weather observed at this time

METAR text: OAKB 180050Z 31003KT 9999 BKN075 BKN190 06/M02 Q1021 NOSIG RMK A3016 BLU BLU
Conditions at: OAKB (KABUL INTL (MIL), AF) observed 0050 UTC 18 March 2019
Temperature: 6.0°C (43°F)
Dewpoint: -2.0°C (28°F) [RH = 56%]
Pressure (altimeter): 30.15 inches Hg (1021.0 mb)
Winds: from the NW (310 degrees) at 3 MPH (3 knots; 1.5 m/s)
Visibility: 6 or more miles (10+ km)
Ceiling: 7500 feet AGL
Clouds: broken clouds at 7500 feet AGL
broken clouds at 19000 feet AGL
Weather: no significant weather observed at this time

METAR text: OAKB 172350Z 30003KT 9999 SCT080 BKN230 06/M02 Q1020 NOSIG RMK A3013 BLU BLU
Conditions at: OAKB (KABUL INTL (MIL), AF) observed 2350 UTC 17 March 2019
Temperature: 6.0°C (43°F)
Dewpoint: -2.0°C (28°F) [RH = 56%]
Pressure (altimeter): 30.12 inches Hg (1020.0 mb)
Winds: from the WNW (300 degrees) at 3 MPH (3 knots; 1.5 m/s)
Visibility: 6 or more miles (10+ km)
Ceiling: 23000 feet AGL
Clouds: scattered clouds at 8000 feet AGL
broken clouds at 23000 feet AGL
Weather: no significant weather observed at this time

METAR text: OAKB 172250Z 33002KT 9999 SCT090 07/M03 Q1020 NOSIG RMK A3015 BLU BLU
Conditions at: OAKB (KABUL INTL (MIL), AF) observed 2250 UTC 17 March 2019
Temperature: 7.0°C (45°F)
Dewpoint: -3.0°C (27°F) [RH = 49%]
Pressure (altimeter): 30.12 inches Hg (1020.0 mb)
Winds: from the NNW (330 degrees) at 2 MPH (2 knots; 1.0 m/s)
Visibility: 6 or more miles (10+ km)
Ceiling: at least 12,000 feet AGL
Clouds: scattered clouds at 9000 feet AGL
Weather: no significant weather observed at this time

METAR text: OAKB 172150Z 34004KT 9999 SCT090 07/M02 Q1021 NOSIG RMK A3017 BLU BLU
Conditions at: OAKB (KABUL INTL (MIL), AF) observed 2150 UTC 17 March 2019
Temperature: 7.0°C (45°F)
Dewpoint: -2.0°C (28°F) [RH = 53%]
Pressure (altimeter): 30.15 inches Hg (1021.0 mb)
Winds: from the NNW (340 degrees) at 5 MPH (4 knots; 2.1 m/s)
Visibility: 6 or more miles (10+ km)
Ceiling: at least 12,000 feet AGL
Clouds: scattered clouds at 9000 feet AGL
Weather: no significant weather observed at this time

METAR text: OAKB 172050Z VRB02KT 9999 SCT090 08/M02 Q1022 NOSIG RMK A3018 BLU BLU
Conditions at: OAKB (KABUL INTL (MIL), AF) observed 2050 UTC 17 March 2019
Temperature: 8.0°C (46°F)
Dewpoint: -2.0°C (28°F) [RH = 49%]
Pressure (altimeter): 30.18 inches Hg (1022.0 mb)
Winds: variable direction winds at 2 MPH (2 knots; 1.0 m/s)
Visibility: 6 or more miles (10+ km)
Ceiling: at least 12,000 feet AGL
Clouds: scattered clouds at 9000 feet AGL
Weather: no significant weather observed at this time

METAR text: OAKB 171950Z VRB02KT 9999 BKN090 07/M01 Q1022 NOSIG RMK A3020 BLU BLU
Conditions at: OAKB (KABUL INTL (MIL), AF) observed 1950 UTC 17 March 2019
Temperature: 7.0°C (45°F)
Dewpoint: -1.0°C (30°F) [RH = 57%]
Pressure (altimeter): 30.18 inches Hg (1022.0 mb)
Winds: variable direction winds at 2 MPH (2 knots; 1.0 m/s)
Visibility: 6 or more miles (10+ km)
Ceiling: 9000 feet AGL
Clouds: broken clouds at 9000 feet AGL
Weather: no significant weather observed at this time

METAR text: OAKB 171850Z 35005KT 9999 SCT080 08/M02 Q1022 NOSIG RMK A3020 BLU BLU
Conditions at: OAKB (KABUL INTL (MIL), AF) observed 1850 UTC 17 March 2019
Temperature: 8.0°C (46°F)
Dewpoint: -2.0°C (28°F) [RH = 49%]
Pressure (altimeter): 30.18 inches Hg (1022.0 mb)
Winds: from the N (350 degrees) at 6 MPH (5 knots; 2.6 m/s)
Visibility: 6 or more miles (10+ km)
Ceiling: at least 12,000 feet AGL
Clouds: scattered clouds at 8000 feet AGL
Weather: no significant weather observed at this time

Forecast for: OAKB (KABUL INTL (MIL), AF)
Text: TAF OAKB 190505Z 1906/2006 33012KT 9999 FEW020 BKN035
Forecast period: 0600 to 1400 UTC 19 March 2019
Forecast type: FROM: standard forecast or significant change
Winds: from the NNW (330 degrees) at 14 MPH (12 knots; 6.2 m/s)
Visibility: 6 or more miles 10+ km)
Ceiling: 3500 feet AGL
Clouds: few clouds at 2000 feet AGL
broken clouds at 3500 feet AGL
Weather: no significant weather forecast for this period
Text: PROB30
Forecast period: 0800 to 1300 UTC 19 March 2019
Forecast type: TEMPORARY: The following changes expected for less than half the time period
Winds: from the N (350 degrees) at 17 MPH (15 knots; 7.7 m/s)
gusting to 29 MPH (25 knots; 12.9 m/s)
Visibility: 3 miles (5 km)
Ceiling: 2500 feet AGL
Clouds: few clouds at 2000 feet AGL
broken clouds at 2500 feet AGL
Weather: -SHRA VCTS  (light rain showers, thunderstorm in vicinity)
Text: TEMPO 1908/1913 35015G25KT 5000 -SHRA VCTS FEW020CB BKN025
Forecast period: 1400 to 2200 UTC 19 March 2019
Forecast type: BECOMING: Conditions expected to become as follows by 1600 UTC 19 March 2019
Winds: variable direction winds at 2 MPH (2 knots; 1.0 m/s)
Visibility: 4 miles (6 km)
Ceiling: 8000 feet AGL
Clouds: scattered clouds at 3000 feet AGL
broken clouds at 8000 feet AGL
Weather: no significant weather forecast for this period
Text: BECMG 1914/1916 VRB02KT 6000 SCT030 BKN080
Forecast period: 2200 UTC 19 March 2019 to 0600 UTC 20 March 2019
Forecast type: BECOMING: Conditions expected to become as follows by 0000 UTC 20 March 2019
Winds: variable direction winds at 2 MPH (2 knots; 1.0 m/s)
Visibility: 1.86 miles (2.99 km)
Ceiling: unknown
Clouds: missing
Weather: BR  (mist)